Time;durP1;ratioP1;P1;durP2;ratioP2;P2;SDS_P1;SDS_P2;PMS_P1;PMS_P2;Temp;Humidity;BMP_temperature;BMP_pressure;BME280_temperature;BME280_humidity;BME280_pressure;Samples;Min_cycle;Max_cycle;Signal;HPM_P1;HPM_P2
2022/04/23 00:01:42;;;;;;;2.53;1.85;;;13.20;99.00;;;;;;5075025;28;20079;-65
2022/04/23 00:04:09;;;;;;;6.03;1.95;;;13.30;97.50;;;;;;5074952;28;20040;-66
2022/04/23 00:06:35;;;;;;;3.90;2.03;;;13.40;94.00;;;;;;5075088;28;20114;-66
2022/04/23 00:09:01;;;;;;;2.90;1.65;;;13.40;93.80;;;;;;5074174;28;20437;-66
2022/04/23 00:11:27;;;;;;;3.60;2.17;;;13.40;92.80;;;;;;5074720;28;20044;-65
2022/04/23 00:13:53;;;;;;;7.43;1.58;;;13.50;93.30;;;;;;5074746;28;20052;-66
2022/04/23 00:16:19;;;;;;;3.55;1.67;;;13.50;93.70;;;;;;5074509;28;20119;-65
2022/04/23 00:18:45;;;;;;;5.15;1.98;;;13.50;93.90;;;;;;5074539;28;20032;-66
2022/04/23 00:21:11;;;;;;;5.22;1.25;;;13.70;93.30;;;;;;5074362;28;20050;-65
2022/04/23 00:23:36;;;;;;;2.03;1.65;;;13.70;92.30;;;;;;5074542;28;20127;-65
2022/04/23 00:26:03;;;;;;;2.30;1.33;;;13.60;90.90;;;;;;5074398;28;20131;-66
2022/04/23 00:28:29;;;;;;;2.85;1.40;;;13.50;91.60;;;;;;5074459;28;20072;-65
2022/04/23 00:30:57;;;;;;;2.63;1.25;;;13.50;95.20;;;;;;5074528;28;20059;-66
2022/04/23 00:33:22;;;;;;;2.60;1.08;;;13.50;96.60;;;;;;5070212;28;20048;-66
2022/04/23 00:35:49;;;;;;;4.97;1.17;;;13.60;96.10;;;;;;5054541;28;20040;-65
2022/04/23 00:38:16;;;;;;;2.15;1.25;;;13.60;96.00;;;;;;5054315;28;20045;-66
2022/04/23 00:40:43;;;;;;;6.10;1.08;;;13.50;96.50;;;;;;5054057;28;20040;-67
2022/04/23 00:43:36;;;;;;;2.28;1.20;;;13.50;96.80;;;;;;5053901;28;20524;-66
2022/04/23 00:46:03;;;;;;;1.45;1.02;;;13.50;97.00;;;;;;5056605;28;20123;-66
2022/04/23 00:48:30;;;;;;;2.10;1.20;;;13.40;95.50;;;;;;5053978;28;20045;-66
2022/04/23 00:50:59;;;;;;;2.20;1.15;;;13.50;96.20;;;;;;5053831;28;20041;-66
2022/04/23 00:53:26;;;;;;;4.75;1.30;;;13.50;96.20;;;;;;5053886;28;20113;-65
2022/04/23 00:55:55;;;;;;;5.78;1.63;;;13.50;96.30;;;;;;5053924;28;20051;-65
2022/04/23 00:58:23;;;;;;;3.17;0.95;;;13.50;96.50;;;;;;5053997;28;20069;-65
2022/04/23 01:00:48;;;;;;;2.38;1.00;;;13.40;96.40;;;;;;5053465;28;20048;-65
2022/04/23 01:03:14;;;;;;;12.48;1.45;;;13.70;95.90;;;;;;5053560;28;20040;-66
2022/04/23 01:05:45;;;;;;;7.40;0.90;;;13.70;99.90;;;;;;5053520;28;20041;-65
2022/04/23 01:08:15;;;;;;;5.18;0.95;;;13.70;98.90;;;;;;5053377;28;20041;-66
2022/04/23 01:10:42;;;;;;;3.33;0.90;;;13.70;97.70;;;;;;5053547;28;20043;-65
2022/04/23 01:13:08;;;;;;;5.07;1.17;;;13.70;93.80;;;;;;5053509;28;20059;-65
2022/04/23 01:15:34;;;;;;;4.53;0.80;;;13.80;92.30;;;;;;5053488;28;20037;-65
2022/04/23 01:18:01;;;;;;;7.60;1.52;;;13.70;92.20;;;;;;5053834;28;20044;-64
2022/04/23 01:20:27;;;;;;;2.28;0.90;;;13.80;91.50;;;;;;5057470;28;20051;-65
2022/04/23 01:22:53;;;;;;;4.07;1.25;;;13.80;91.70;;;;;;5052773;28;20029;-65
2022/04/23 01:25:19;;;;;;;3.83;1.00;;;13.70;91.90;;;;;;5051679;28;20055;-64
2022/04/23 01:27:45;;;;;;;1.60;0.70;;;13.70;91.90;;;;;;5052933;28;20037;-66
2022/04/23 01:30:12;;;;;;;5.05;0.90;;;13.70;92.20;;;;;;5053065;28;20040;-66
2022/04/23 01:32:38;;;;;;;4.40;0.80;;;13.60;91.70;;;;;;5053099;28;20033;-64
2022/04/23 01:35:04;;;;;;;2.50;0.82;;;13.70;91.60;;;;;;5053307;28;20071;-65
2022/04/23 01:37:30;;;;;;;2.63;0.93;;;13.70;91.40;;;;;;5053094;28;20043;-64
2022/04/23 01:39:56;;;;;;;6.20;0.90;;;13.70;91.40;;;;;;5053134;28;20052;-66
2022/04/23 01:42:22;;;;;;;2.25;0.95;;;13.70;91.60;;;;;;5065503;28;20123;-64
2022/04/23 01:44:50;;;;;;;2.75;0.70;;;13.60;91.90;;;;;;5072777;28;20269;-65
2022/04/23 01:47:17;;;;;;;3.78;0.90;;;13.60;93.40;;;;;;5072805;28;20028;-65
2022/04/23 01:49:46;;;;;;;4.22;0.73;;;13.60;93.50;;;;;;5073005;28;20123;-65
2022/04/23 01:52:13;;;;;;;5.35;1.02;;;;;;;;;;5073398;28;20072;-66
2022/04/23 01:54:39;;;;;;;10.57;0.80;;;13.50;97.30;;;;;;5072964;28;20127;-66
2022/04/23 01:57:05;;;;;;;6.30;1.27;;;13.50;95.20;;;;;;5072707;28;20473;-65
2022/04/23 01:59:31;;;;;;;4.45;0.88;;;13.40;94.80;;;;;;5072577;28;20048;-65
2022/04/23 02:01:58;;;;;;;5.68;0.90;;;13.50;94.80;;;;;;5072967;28;20048;-66
2022/04/23 02:04:24;;;;;;;3.60;0.90;;;13.50;94.90;;;;;;5072940;28;20047;-65
2022/04/23 02:06:51;;;;;;;5.63;0.80;;;13.60;94.80;;;;;;5072962;28;20040;-65
2022/04/23 02:09:17;;;;;;;4.43;1.60;;;13.50;95.20;;;;;;5071840;28;20036;-65
2022/04/23 02:11:43;;;;;;;3.83;0.90;;;13.50;96.00;;;;;;5072346;28;20025;-66
2022/04/23 02:14:09;;;;;;;3.47;1.35;;;13.50;96.40;;;;;;5072629;28;20036;-66
2022/04/23 02:16:35;;;;;;;5.63;1.08;;;13.50;98.90;;;;;;5072406;28;20112;-65
2022/04/23 02:19:03;;;;;;;6.18;1.30;;;13.50;98.90;;;;;;5072501;28;20131;-66
2022/04/23 02:21:30;;;;;;;2.05;1.00;;;13.50;99.20;;;;;;5072400;28;20140;-66
2022/04/23 02:23:56;;;;;;;4.18;1.23;;;13.40;99.90;;;;;;5072161;28;20036;-66
2022/04/23 02:26:22;;;;;;;7.68;1.73;;;13.40;97.10;;;;;;5072676;28;20385;-66
2022/04/23 02:28:48;;;;;;;1.85;0.95;;;;;;;;;;5072793;28;20082;-66
2022/04/23 02:31:14;;;;;;;5.70;1.50;;;13.10;99.90;;;;;;5074234;28;20055;-66
2022/04/23 02:33:40;;;;;;;2.55;1.10;;;13.30;94.30;;;;;;5076624;28;20024;-65
2022/04/23 02:36:08;;;;;;;8.13;1.77;;;13.20;94.10;;;;;;5076491;28;20127;-66
2022/04/23 02:38:41;;;;;;;6.85;1.05;;;13.10;90.70;;;;;;5072868;28;20035;-64
2022/04/23 02:41:11;;;;;;;7.80;1.08;;;13.00;90.80;;;;;;5076437;28;20056;-64
2022/04/23 02:43:38;;;;;;;5.03;1.52;;;13.00;90.90;;;;;;5076463;28;20046;-64
2022/04/23 02:46:07;;;;;;;4.95;1.48;;;13.00;91.10;;;;;;5076237;28;20098;-66
2022/04/23 02:48:33;;;;;;;4.50;1.17;;;12.90;91.30;;;;;;5070576;28;20469;-64
2022/04/23 02:51:00;;;;;;;5.35;1.55;;;12.90;91.50;;;;;;5056340;28;20120;-64
2022/04/23 02:53:26;;;;;;;5.40;1.20;;;12.90;91.90;;;;;;5056088;28;20041;-65
2022/04/23 02:55:56;;;;;;;5.43;1.30;;;12.90;91.70;;;;;;5056362;28;20087;-65
2022/04/23 02:58:26;;;;;;;3.88;1.25;;;12.90;91.90;;;;;;5056137;28;20500;-65
2022/04/23 03:00:55;;;;;;;5.33;1.30;;;12.80;92.00;;;;;;5056257;28;20055;-65
2022/04/23 03:03:21;;;;;;;8.20;1.73;;;12.80;92.10;;;;;;5056439;28;20271;-64
2022/04/23 03:05:48;;;;;;;4.15;1.10;;;12.80;92.30;;;;;;5056025;28;20136;-66
2022/04/23 03:08:14;;;;;;;4.70;1.77;;;12.80;92.60;;;;;;5055970;28;20067;-64
2022/04/23 03:10:41;;;;;;;5.38;1.90;;;12.70;92.60;;;;;;5055846;28;20049;-65
2022/04/23 03:13:10;;;;;;;7.90;1.92;;;12.70;92.80;;;;;;5055528;28;20033;-64
2022/04/23 03:15:36;;;;;;;7.45;1.50;;;12.60;93.10;;;;;;5055741;28;20049;-65
2022/04/23 03:18:10;;;;;;;5.63;1.80;;;12.60;93.00;;;;;;5055552;28;20167;-65
2022/04/23 03:20:37;;;;;;;3.28;1.50;;;12.60;93.20;;;;;;5055554;28;20083;-64
2022/04/23 03:23:03;;;;;;;4.03;1.50;;;12.60;93.40;;;;;;5055752;28;20486;-64
2022/04/23 03:25:32;;;;;;;7.03;1.67;;;12.60;93.30;;;;;;5055724;28;20044;-65
2022/04/23 03:28:01;;;;;;;4.82;1.58;;;12.50;93.30;;;;;;5055651;28;20491;-65
2022/04/23 03:30:28;;;;;;;6.20;1.40;;;12.60;93.30;;;;;;5057750;28;20037;-66
2022/04/23 03:32:54;;;;;;;3.88;1.60;;;12.50;93.30;;;;;;5072587;28;20045;-65
2022/04/23 03:35:20;;;;;;;5.20;1.58;;;12.50;93.40;;;;;;5073530;28;20411;-65
2022/04/23 03:37:47;;;;;;;4.22;1.40;;;12.50;93.40;;;;;;5075401;28;20102;-66
2022/04/23 03:40:13;;;;;;;4.60;2.00;;;12.50;93.50;;;;;;5074957;28;20484;-65
2022/04/23 03:42:39;;;;;;;4.20;1.50;;;12.60;93.20;;;;;;5074125;28;20035;-65
2022/04/23 03:45:06;;;;;;;5.22;1.27;;;12.60;93.10;;;;;;5075111;28;20051;-65
2022/04/23 03:47:32;;;;;;;5.75;1.55;;;12.50;93.40;;;;;;5075143;28;20431;-67
2022/04/23 03:50:08;;;;;;;6.47;1.77;;;12.60;93.00;;;;;;5057284;28;20068;-65
2022/04/23 03:52:34;;;;;;;7.72;2.38;;;12.60;92.90;;;;;;5075024;28;20043;-66
2022/04/23 03:55:00;;;;;;;4.97;1.67;;;12.60;92.90;;;;;;5075043;28;20047;-66
2022/04/23 03:57:26;;;;;;;4.75;1.60;;;12.50;93.00;;;;;;5074739;28;20419;-65
2022/04/23 03:59:52;;;;;;;7.28;1.67;;;12.50;92.90;;;;;;5074518;28;20048;-65
2022/04/23 04:02:17;;;;;;;4.07;1.30;;;12.50;92.70;;;;;;5074678;28;20134;-65
2022/04/23 04:04:44;;;;;;;7.97;1.55;;;12.60;92.50;;;;;;5074757;28;20043;-66
2022/04/23 04:07:17;;;;;;;6.28;1.45;;;12.60;92.20;;;;;;5074737;28;20075;-66
2022/04/23 04:09:43;;;;;;;3.78;1.65;;;12.60;92.20;;;;;;5074792;28;20086;-66
2022/04/23 04:12:10;;;;;;;6.10;1.60;;;12.80;91.80;;;;;;5074461;28;20127;-66
2022/04/23 04:14:36;;;;;;;3.70;1.30;;;12.70;91.70;;;;;;5074347;28;20389;-65
2022/04/23 04:17:09;;;;;;;7.03;1.65;;;12.70;91.60;;;;;;5074802;28;20063;-66
2022/04/23 04:19:35;;;;;;;7.03;2.30;;;12.70;91.50;;;;;;5074443;28;20039;-65
2022/04/23 04:22:04;;;;;;;6.90;1.50;;;12.70;91.40;;;;;;5074392;28;20044;-65
2022/04/23 04:24:31;;;;;;;8.65;1.63;;;12.70;91.30;;;;;;5074199;28;20040;-65
2022/04/23 04:26:58;;;;;;;6.80;1.65;;;12.80;91.20;;;;;;5074141;28;20082;-65
2022/04/23 04:29:25;;;;;;;5.80;1.50;;;12.80;91.00;;;;;;5074192;28;20047;-65
2022/04/23 04:31:51;;;;;;;6.40;1.50;;;12.80;91.00;;;;;;5068339;28;20032;-65
2022/04/23 04:34:24;;;;;;;6.15;1.60;;;12.70;91.00;;;;;;5074538;28;20041;-66
2022/04/23 04:36:59;;;;;;;6.57;1.30;;;12.70;90.70;;;;;;5073427;28;20044;-65
2022/04/23 04:39:25;;;;;;;5.38;1.45;;;12.70;91.00;;;;;;5073805;28;20071;-65
2022/04/23 04:41:51;;;;;;;4.25;1.63;;;12.60;91.00;;;;;;5070692;28;20079;-65
2022/04/23 04:44:17;;;;;;;4.32;1.85;;;12.60;91.00;;;;;;5073878;28;20499;-66
2022/04/23 04:46:42;;;;;;;3.85;1.23;;;12.70;94.10;;;;;;5073487;28;20051;-66
2022/04/23 04:49:09;;;;;;;11.80;2.00;;;12.70;94.20;;;;;;5074068;28;20064;-66
2022/04/23 04:51:36;;;;;;;6.18;1.60;;;12.60;94.30;;;;;;5067868;28;20045;-66
2022/04/23 04:54:05;;;;;;;10.10;2.00;;;12.60;94.10;;;;;;5052013;28;20048;-66
2022/04/23 04:56:32;;;;;;;5.85;1.50;;;12.60;94.30;;;;;;5053483;28;20047;-66
2022/04/23 04:58:58;;;;;;;3.47;1.35;;;12.60;93.90;;;;;;5068058;28;20040;-65
2022/04/23 05:01:24;;;;;;;6.40;1.42;;;12.60;93.90;;;;;;5072579;28;20048;-67
2022/04/23 05:03:51;;;;;;;4.68;1.20;;;12.70;93.40;;;;;;5073200;28;20032;-67
2022/04/23 05:06:17;;;;;;;3.65;1.10;;;12.70;93.50;;;;;;5073093;28;20044;-65
2022/04/23 05:08:43;;;;;;;5.85;1.27;;;12.60;93.60;;;;;;5073416;28;20436;-66
2022/04/23 05:11:10;;;;;;;5.90;1.80;;;12.60;93.60;;;;;;5073575;28;20044;-66
2022/04/23 05:13:37;;;;;;;4.00;1.50;;;12.70;93.20;;;;;;5064754;28;20035;-66
2022/04/23 05:16:06;;;;;;;4.82;1.80;;;12.70;93.50;;;;;;5061416;28;20755;-65
2022/04/23 05:18:35;;;;;;;8.63;1.70;;;12.60;93.40;;;;;;5068070;28;20388;-65
2022/04/23 05:21:01;;;;;;;7.00;1.33;;;12.60;93.30;;;;;;5073153;28;20197;-65
2022/04/23 05:23:28;;;;;;;5.20;1.08;;;12.70;93.10;;;;;;5073246;28;20508;-65
2022/04/23 05:25:54;;;;;;;3.80;1.25;;;12.70;93.40;;;;;;5061779;28;20040;-66
2022/04/23 05:28:20;;;;;;;4.20;1.30;;;12.70;92.80;;;;;;5055866;28;20173;-65
2022/04/23 05:30:46;;;;;;;5.75;1.92;;;12.70;93.10;;;;;;5057760;28;20125;-65
2022/04/23 05:33:12;;;;;;;6.43;1.50;;;12.70;93.30;;;;;;5071998;28;20170;-65
2022/04/23 05:35:38;;;;;;;9.60;1.23;;;12.60;93.20;;;;;;5071837;28;20077;-65
2022/04/23 05:38:05;;;;;;;5.88;1.73;;;12.60;93.20;;;;;;5070652;28;20040;-65
2022/04/23 05:40:31;;;;;;;9.57;2.28;;;12.60;93.10;;;;;;5071585;28;20499;-66
2022/04/23 05:43:00;;;;;;;5.55;1.30;;;12.70;93.10;;;;;;5073102;28;20044;-66
2022/04/23 05:45:27;;;;;;;6.15;1.60;;;12.70;92.60;;;;;;5072349;28;20048;-66
2022/04/23 05:47:53;;;;;;;5.80;1.50;;;12.70;92.80;;;;;;5072988;28;20127;-66
2022/04/23 05:50:19;;;;;;;5.38;1.27;;;12.70;92.70;;;;;;5072826;28;20123;-67
2022/04/23 05:52:45;;;;;;;4.40;1.40;;;12.80;92.70;;;;;;5072788;28;20043;-66
2022/04/23 05:55:12;;;;;;;8.60;1.80;;;12.70;92.80;;;;;;5071711;28;20041;-66
2022/04/23 05:57:38;;;;;;;4.82;1.48;;;12.80;92.60;;;;;;5071894;28;20423;-65
2022/04/23 06:00:06;;;;;;;7.43;1.55;;;12.80;93.00;;;;;;5072117;28;20044;-66
2022/04/23 06:02:31;;;;;;;3.42;1.52;;;12.80;93.00;;;;;;5072862;28;20040;-67
2022/04/23 06:04:58;;;;;;;8.13;1.60;;;12.80;93.10;;;;;;5072610;28;20044;-65
2022/04/23 06:07:24;;;;;;;3.00;1.23;;;12.90;92.60;;;;;;5072574;28;20060;-66
2022/04/23 06:09:50;;;;;;;4.85;1.27;;;13.10;92.60;;;;;;5072933;28;20059;-66
2022/04/23 06:12:16;;;;;;;4.13;1.30;;;13.10;93.20;;;;;;5072853;28;20142;-65
2022/04/23 06:14:43;;;;;;;3.08;0.95;;;;;;;;;;5072835;28;20044;-67
2022/04/23 06:17:11;;;;;;;9.05;1.63;;;13.90;99.30;;;;;;5072901;28;20059;-66
2022/04/23 06:19:38;;;;;;;5.40;1.25;;;13.60;92.00;;;;;;5072724;28;20036;-66
2022/04/23 06:22:04;;;;;;;4.22;1.40;;;13.60;92.20;;;;;;5072590;28;20040;-66
2022/04/23 06:24:30;;;;;;;5.03;1.42;;;13.60;92.40;;;;;;5072699;28;20400;-66
2022/04/23 06:26:56;;;;;;;4.63;1.40;;;13.50;92.50;;;;;;5072701;28;20050;-67
2022/04/23 06:29:22;;;;;;;6.45;1.77;;;13.70;93.80;;;;;;5072644;28;20404;-67
2022/04/23 06:31:48;;;;;;;4.28;1.67;;;13.60;93.90;;;;;;5072573;28;20825;-67
2022/04/23 06:34:13;;;;;;;3.78;1.17;;;13.70;94.70;;;;;;5072392;28;20044;-66
2022/04/23 06:36:40;;;;;;;4.28;1.55;;;13.80;95.40;;;;;;5069413;28;20535;-66
2022/04/23 06:39:06;;;;;;;4.10;1.83;;;13.80;96.20;;;;;;5072562;28;20036;-67
2022/04/23 06:41:32;;;;;;;5.47;1.35;;;14.00;92.90;;;;;;5072355;28;20051;-67
2022/04/23 06:43:58;;;;;;;4.57;1.30;;;14.10;95.20;;;;;;5072438;28;20539;-65
2022/04/23 06:46:24;;;;;;;6.70;1.52;;;14.40;90.70;;;;;;5071863;28;20516;-66
2022/04/23 06:48:50;;;;;;;4.28;1.83;;;14.40;90.40;;;;;;5072173;28;20480;-66
2022/04/23 06:51:16;;;;;;;9.93;2.20;;;14.00;90.50;;;;;;5072654;28;20028;-66
2022/04/23 06:53:42;;;;;;;6.88;1.70;;;13.70;90.10;;;;;;5072501;28;20563;-65
2022/04/23 06:56:07;;;;;;;3.00;1.30;;;13.70;90.80;;;;;;5072531;28;20101;-66
2022/04/23 06:58:34;;;;;;;8.77;1.65;;;13.50;90.60;;;;;;5072227;28;20040;-67
2022/04/23 07:01:00;;;;;;;4.55;1.25;;;13.60;90.80;;;;;;5072370;28;20045;-65
2022/04/23 07:03:26;;;;;;;9.00;2.75;;;13.70;90.80;;;;;;5072287;28;20098;-65
2022/04/23 07:05:52;;;;;;;7.55;1.70;;;13.70;90.90;;;;;;5072324;28;20049;-66
2022/04/23 07:08:18;;;;;;;6.90;1.83;;;14.00;91.00;;;;;;5072263;28;20039;-66
2022/04/23 07:10:44;;;;;;;6.72;1.88;;;14.10;90.80;;;;;;5057075;28;20503;-66
2022/04/23 07:13:11;;;;;;;6.35;2.00;;;14.30;90.50;;;;;;5052074;28;20044;-65
2022/04/23 07:15:38;;;;;;;7.32;1.55;;;14.60;91.30;;;;;;5052418;28;20114;-68
2022/04/23 07:18:06;;;;;;;5.30;1.95;;;14.70;90.40;;;;;;5067385;28;20361;-65
2022/04/23 07:20:31;;;;;;;10.18;1.70;;;14.80;90.20;;;;;;5073383;28;20063;-67
2022/04/23 07:25:41;;;;;;;9.07;2.22;;;15.00;90.20;;;;;;5063295;28;20455;-65
2022/04/23 07:28:07;;;;;;;5.57;1.67;;;15.10;90.40;;;;;;5052663;28;20044;-67
2022/04/23 07:30:35;;;;;;;6.10;2.10;;;14.70;90.10;;;;;;5052568;28;20127;-66
2022/04/23 07:33:01;;;;;;;6.45;2.13;;;14.80;90.90;;;;;;5053126;28;20083;-66
2022/04/23 07:38:23;;;;;;;6.03;1.70;;;14.90;90.20;;;;;;5057970;28;20071;-66
2022/04/23 07:40:51;;;;;;;6.85;1.90;;;15.00;90.40;;;;;;5060852;28;20107;-66
2022/04/23 07:43:17;;;;;;;17.80;2.10;;;15.30;90.60;;;;;;5062282;28;20438;-66
2022/04/23 07:45:44;;;;;;;9.20;2.15;;;15.00;90.50;;;;;;5060615;28;20049;-66
2022/04/23 07:48:12;;;;;;;7.13;1.75;;;15.00;90.30;;;;;;5062493;28;20425;-66
2022/04/23 07:50:41;;;;;;;9.65;2.22;;;15.00;90.40;;;;;;5062670;28;20033;-67
2022/04/23 07:53:09;;;;;;;9.02;1.88;;;14.70;90.60;;;;;;5060122;28;20048;-66
2022/04/23 07:55:38;;;;;;;8.82;1.80;;;14.80;90.90;;;;;;5059712;28;20044;-66
2022/04/23 07:58:06;;;;;;;6.03;1.80;;;15.00;91.10;;;;;;5059736;28;20040;-66
2022/04/23 08:00:34;;;;;;;6.38;1.85;;;14.90;91.00;;;;;;5053851;28;20087;-67
2022/04/23 08:03:02;;;;;;;15.88;2.72;;;;;;;;;;5057888;28;20052;-67
2022/04/23 08:05:29;;;;;;;7.22;2.00;;;14.60;90.90;;;;;;5060669;28;20049;-67
2022/04/23 08:07:55;;;;;;;5.10;1.88;;;14.70;91.40;;;;;;5067816;28;20511;-67
2022/04/23 08:10:21;;;;;;;6.97;1.52;;;14.50;91.10;;;;;;5074074;28;20068;-66
2022/04/23 08:12:47;;;;;;;7.43;2.05;;;14.50;91.40;;;;;;5061194;28;20511;-66
2022/04/23 08:15:13;;;;;;;6.78;1.98;;;14.50;91.80;;;;;;5056299;28;20043;-66
2022/04/23 08:17:39;;;;;;;12.57;2.13;;;14.50;91.60;;;;;;5054825;28;20028;-66
2022/04/23 08:20:06;;;;;;;8.52;2.67;;;14.40;91.40;;;;;;5052070;28;20044;-66
2022/04/23 08:22:32;;;;;;;9.52;2.08;;;14.40;91.70;;;;;;5052298;28;20037;-66
2022/04/23 08:24:58;;;;;;;6.53;1.90;;;14.50;92.00;;;;;;5052321;28;20090;-66
2022/04/23 08:27:24;;;;;;;7.93;1.83;;;14.50;91.70;;;;;;5055528;28;20033;-66
2022/04/23 08:32:36;;;;;;;9.50;1.75;;;14.60;91.40;;;;;;5054850;28;20463;-66
2022/04/23 08:35:05;;;;;;;5.93;1.92;;;14.60;91.50;;;;;;5051915;28;20045;-66
2022/04/23 08:37:32;;;;;;;25.80;3.45;;;15.10;91.50;;;;;;5054309;28;20047;-66
2022/04/23 08:39:58;;;;;;;13.45;3.47;;;15.30;91.20;;;;;;5058673;28;20040;-64
2022/04/23 08:42:24;;;;;;;17.13;2.05;;;15.50;90.80;;;;;;5058237;28;20101;-66
2022/04/23 08:44:53;;;;;;;11.27;2.08;;;15.30;91.00;;;;;;5063140;28;20127;-67
2022/04/23 08:47:23;;;;;;;9.13;2.10;;;15.30;91.20;;;;;;5056747;28;20409;-66
2022/04/23 08:49:56;;;;;;;10.50;2.00;;;15.20;91.20;;;;;;5071648;28;20033;-65
2022/04/23 08:52:34;;;;;;;8.15;1.98;;;15.60;90.60;;;;;;5073377;28;20278;-65
2022/04/23 08:55:02;;;;;;;11.07;2.10;;;15.80;90.80;;;;;;5069321;28;20648;-64
2022/04/23 08:57:30;;;;;;;15.27;2.42;;;15.60;90.60;;;;;;5068686;28;20143;-66
2022/04/23 08:59:56;;;;;;;13.95;2.88;;;15.80;91.10;;;;;;5056027;28;20052;-67
2022/04/23 09:02:26;;;;;;;10.55;2.20;;;15.90;91.10;;;;;;5053595;28;20039;-66
2022/04/23 09:04:55;;;;;;;12.80;2.17;;;16.00;91.20;;;;;;5064613;28;20044;-65
2022/04/23 09:07:25;;;;;;;7.68;2.10;;;15.60;91.10;;;;;;5057395;28;20037;-65
2022/04/23 09:09:54;;;;;;;8.05;1.88;;;15.40;91.60;;;;;;5055237;28;20039;-65
2022/04/23 09:12:24;;;;;;;17.10;4.95;;;15.00;91.70;;;;;;5053391;28;20044;-66
2022/04/23 09:14:51;;;;;;;35.03;16.50;;;15.00;91.70;;;;;;5056678;28;20045;-67
2022/04/23 09:25:41;;;;;;;15.25;2.72;;;15.30;91.40;;;;;;5052216;28;20048;-65
2022/04/23 09:28:22;;;;;;;16.10;2.85;;;15.40;91.80;;;;;;5063696;28;20526;-66
2022/04/23 09:30:56;;;;;;;13.95;3.05;;;15.40;91.30;;;;;;5073401;28;20086;-65
2022/04/23 09:33:29;;;;;;;10.25;3.20;;;15.40;91.20;;;;;;5073060;28;20044;-66
2022/04/23 09:36:00;;;;;;;11.10;2.75;;;15.30;91.70;;;;;;5073087;28;20128;-67
2022/04/23 09:38:27;;;;;;;12.75;2.30;;;15.20;92.60;;;;;;5063530;28;20040;-66
2022/04/23 09:40:57;;;;;;;11.45;1.85;;;15.10;92.60;;;;;;5056734;28;20101;-66
2022/04/23 09:43:30;;;;;;;11.13;2.33;;;15.10;92.60;;;;;;5059158;28;20068;-66
2022/04/23 09:46:03;;;;;;;9.07;2.30;;;14.90;92.70;;;;;;5060437;28;20040;-66
2022/04/23 09:48:30;;;;;;;13.27;2.47;;;14.70;92.90;;;;;;5061693;28;20053;-66
2022/04/23 09:50:57;;;;;;;9.05;2.42;;;14.80;93.00;;;;;;5061161;28;20040;-64
2022/04/23 09:53:27;;;;;;;12.25;2.15;;;14.90;93.30;;;;;;5045501;28;20095;-66
2022/04/23 09:55:58;;;;;;;;;;;15.00;93.70;;;;;;5062758;28;20072;-66
2022/04/23 09:58:32;;;;;;;12.75;2.97;;;14.80;93.70;;;;;;5063340;28;19922;-67
2022/04/23 10:00:59;;;;;;;10.77;2.22;;;14.80;94.50;;;;;;5060367;28;20060;-67
2022/04/23 10:03:32;;;;;;;8.95;2.28;;;14.70;94.10;;;;;;5062608;28;20044;-68
2022/04/23 10:06:05;;;;;;;9.90;2.47;;;14.70;95.70;;;;;;5069195;28;20036;-65
2022/04/23 10:08:36;;;;;;;10.52;2.30;;;14.30;93.80;;;;;;5064767;28;20040;-65
2022/04/23 10:11:28;;;;;;;9.98;2.20;;;14.30;94.40;;;;;;5058680;28;20115;-65
2022/04/23 10:14:02;;;;;;;8.43;2.10;;;14.10;94.30;;;;;;5062105;28;20067;-66
2022/04/23 10:16:32;;;;;;;10.80;2.10;;;14.10;94.60;;;;;;5052539;28;20444;-66
2022/04/23 10:18:59;;;;;;;8.30;2.22;;;14.10;94.60;;;;;;5059827;28;20058;-66
2022/04/23 10:21:56;;;;;;;13.00;2.42;;;14.10;94.40;;;;;;5052521;28;20056;-66
2022/04/23 10:24:56;;;;;;;12.07;2.47;;;14.10;94.80;;;;;;5047554;28;20036;-65
2022/04/23 10:27:25;;;;;;;9.88;2.65;;;14.10;94.90;;;;;;5024502;28;20047;-66
2022/04/23 10:30:04;;;;;;;13.00;2.42;;;14.00;94.80;;;;;;5056220;28;20493;-65
2022/04/23 10:32:41;;;;;;;6.15;1.95;;;14.10;94.90;;;;;;5050610;28;20477;-66
2022/04/23 10:35:19;;;;;;;6.65;1.83;;;14.00;94.90;;;;;;5054074;28;20040;-64
2022/04/23 10:37:51;;;;;;;7.13;2.30;;;14.00;95.50;;;;;;5049891;28;20037;-64
2022/04/23 10:40:18;;;;;;;10.80;2.50;;;14.00;95.70;;;;;;5052041;28;20103;-66
2022/04/23 10:43:22;;;;;;;6.53;2.25;;;13.80;95.50;;;;;;5054661;28;20041;-66
2022/04/23 10:45:48;;;;;;;6.40;2.03;;;13.90;96.20;;;;;;4988486;28;20046;-65
2022/04/23 10:48:23;;;;;;;8.43;2.38;;;13.80;96.70;;;;;;4989568;28;20042;-64
2022/04/23 10:51:21;;;;;;;5.00;1.80;;;13.70;96.80;;;;;;5021154;28;20531;-66
2022/04/23 10:53:47;;;;;;;10.32;2.17;;;13.70;97.00;;;;;;5062898;28;20040;-67
2022/04/23 10:56:17;;;;;;;9.48;2.28;;;13.70;97.80;;;;;;5056715;28;20045;-66
2022/04/23 10:58:43;;;;;;;5.97;1.65;;;13.70;97.00;;;;;;5064691;28;20133;-67
2022/04/23 11:01:22;;;;;;;13.57;2.50;;;13.60;97.00;;;;;;5072831;28;20040;-66
2022/04/23 11:04:07;;;;;;;10.52;1.75;;;13.70;97.60;;;;;;5069111;28;20041;-66
2022/04/23 11:12:37;;;;;;;12.27;2.30;;;13.60;98.00;;;;;;5063405;28;20557;-67
2022/04/23 11:15:18;;;;;;;12.02;2.85;;;13.50;99.00;;;;;;5053908;28;20136;-66
2022/04/23 11:17:58;;;;;;;10.15;2.63;;;13.40;99.90;;;;;;5053423;28;20036;-68
2022/04/23 11:20:29;;;;;;;12.27;2.72;;;13.30;99.90;;;;;;5055375;28;20091;-66
2022/04/23 11:22:56;;;;;;;19.17;3.00;;;13.10;99.90;;;;;;5055886;28;20033;-68
2022/04/23 11:25:23;;;;;;;10.02;2.58;;;13.00;99.90;;;;;;5069987;28;20407;-68
2022/04/23 11:27:50;;;;;;;13.07;2.90;;;13.00;99.90;;;;;;5055161;28;20033;-67
2022/04/23 11:30:29;;;;;;;15.45;3.53;;;13.00;99.90;;;;;;5075125;28;20518;-66
2022/04/23 11:33:08;;;;;;;12.05;2.53;;;13.10;99.90;;;;;;5054508;28;20491;-66
2022/04/23 11:35:36;;;;;;;8.35;2.22;;;13.00;99.90;;;;;;5052991;28;20037;-67
2022/04/23 11:38:05;;;;;;;9.27;1.77;;;12.90;99.90;;;;;;5058192;28;20403;-65
2022/04/23 11:40:34;;;;;;;6.15;1.52;;;13.00;99.90;;;;;;5067068;28;20037;-67
2022/04/23 11:43:00;;;;;;;17.35;1.50;;;13.10;99.90;;;;;;5052959;28;20095;-64
2022/04/23 11:45:26;;;;;;;4.93;2.03;;;13.20;99.90;;;;;;5053122;28;20045;-63
2022/04/23 11:47:51;;;;;;;5.80;1.55;;;13.20;99.90;;;;;;5054029;28;20043;-67
2022/04/23 11:50:24;;;;;;;5.60;1.52;;;13.20;99.90;;;;;;5059489;28;20044;-67
2022/04/23 11:52:57;;;;;;;5.82;1.55;;;;;;;;;;5065270;28;20040;-66
2022/04/23 11:55:25;;;;;;;4.88;1.15;;;13.40;99.90;;;;;;5066074;28;20040;-66
2022/04/23 11:58:04;;;;;;;6.90;1.20;;;13.60;99.90;;;;;;5062466;28;20029;-65
2022/04/23 12:00:34;;;;;;;4.85;1.50;;;13.70;99.90;;;;;;5062155;28;20044;-63
2022/04/23 12:03:01;;;;;;;5.97;1.27;;;13.80;99.90;;;;;;5059273;28;20067;-63
2022/04/23 12:05:32;;;;;;;4.45;1.20;;;13.80;99.90;;;;;;5059308;28;20123;-65
2022/04/23 12:07:58;;;;;;;;;;;13.90;99.90;;;;;;5058735;28;20040;-64
2022/04/23 12:10:27;;;;;;;7.28;1.25;;;13.90;99.90;;;;;;5054412;28;19909;-64
2022/04/23 12:12:56;;;;;;;5.47;1.35;;;13.80;99.90;;;;;;5060183;28;20032;-66
2022/04/23 12:15:23;;;;;;;7.13;1.30;;;13.90;99.90;;;;;;5040601;28;20455;-64
2022/04/23 12:17:53;;;;;;;6.50;1.30;;;13.80;99.90;;;;;;5053758;28;20155;-66
2022/04/23 12:20:24;;;;;;;6.32;1.23;;;13.80;99.90;;;;;;5052293;28;20052;-65
2022/04/23 12:23:07;;;;;;;3.83;1.30;;;13.80;99.90;;;;;;5060859;28;20446;-64
2022/04/23 12:25:35;;;;;;;9.02;1.63;;;13.80;99.90;;;;;;5064475;28;20512;-64
2022/04/23 12:42:09;;;;;;;6.18;1.60;;;14.40;99.90;;;;;;5068228;28;20170;-65
2022/04/23 12:44:46;;;;;;;3.50;0.93;;;14.30;99.90;;;;;;5071693;28;20032;-64
2022/04/23 12:47:29;;;;;;;6.78;1.02;;;14.20;99.90;;;;;;5071680;28;20044;-66
2022/04/23 12:49:58;;;;;;;3.67;1.50;;;14.20;99.90;;;;;;5071638;28;20081;-64
2022/04/23 12:52:24;;;;;;;2.22;1.00;;;14.20;99.90;;;;;;5071864;28;20036;-64
2022/04/23 12:55:13;;;;;;;3.08;1.02;;;14.30;99.90;;;;;;5072030;28;20041;-64
2022/04/23 12:57:47;;;;;;;4.03;1.05;;;14.40;99.90;;;;;;5071748;28;20392;-65
2022/04/23 13:00:16;;;;;;;2.92;1.10;;;14.40;99.90;;;;;;5071282;28;20044;-65
2022/04/23 13:02:45;;;;;;;4.60;1.00;;;14.40;99.90;;;;;;5054273;28;20045;-65
2022/04/23 13:05:12;;;;;;;2.17;1.08;;;14.40;99.90;;;;;;5053575;28;20385;-66
2022/04/23 13:10:23;;;;;;;4.32;1.20;;;14.30;99.90;;;;;;5053836;28;20132;-66
2022/04/23 13:12:49;;;;;;;6.85;1.27;;;14.20;99.90;;;;;;5053768;28;20119;-66
2022/04/23 13:15:18;;;;;;;4.88;0.95;;;14.20;99.90;;;;;;5053699;28;20064;-66
2022/04/23 13:17:46;;;;;;;2.53;1.10;;;14.20;99.90;;;;;;5053723;28;20049;-66
2022/04/23 13:20:13;;;;;;;1.85;0.73;;;14.20;99.90;;;;;;5053264;28;20048;-66
2022/04/23 13:22:46;;;;;;;2.30;0.93;;;14.20;99.90;;;;;;5053311;28;20377;-66
2022/04/23 13:25:13;;;;;;;3.10;0.85;;;14.20;99.90;;;;;;5053519;28;20404;-66
2022/04/23 13:27:40;;;;;;;4.78;0.90;;;14.20;99.90;;;;;;5053578;28;20499;-65
2022/04/23 13:30:07;;;;;;;1.63;0.93;;;14.30;99.90;;;;;;5053577;28;20087;-66
2022/04/23 13:32:35;;;;;;;2.20;0.70;;;14.30;99.90;;;;;;5053460;28;20033;-66
2022/04/23 13:35:02;;;;;;;2.70;1.10;;;14.30;99.90;;;;;;5053243;28;20064;-66